sensor_id;sensor_type;location;lat;lon;timestamp;temperature;humidity
22071;DHT22;11200;51.488;6.668;2023-04-25T00:01:23;6.70;99.90
22071;DHT22;11200;51.488;6.668;2023-04-25T00:03:49;7.10;99.90
22071;DHT22;11200;51.488;6.668;2023-04-25T00:06:15;6.80;99.90
22071;DHT22;11200;51.488;6.668;2023-04-25T00:08:41;6.80;99.90
22071;DHT22;11200;51.488;6.668;2023-04-25T00:11:07;6.80;99.90
22071;DHT22;11200;51.488;6.668;2023-04-25T00:13:32;6.80;99.90
22071;DHT22;11200;51.488;6.668;2023-04-25T00:15:58;6.70;99.90
22071;DHT22;11200;51.488;6.668;2023-04-25T00:18:25;6.70;99.90
22071;DHT22;11200;51.488;6.668;2023-04-25T00:20:54;6.80;99.90
22071;DHT22;11200;51.488;6.668;2023-04-25T00:23:20;6.70;99.90
22071;DHT22;11200;51.488;6.668;2023-04-25T00:25:50;6.70;99.90
22071;DHT22;11200;51.488;6.668;2023-04-25T00:28:16;7.40;99.90
22071;DHT22;11200;51.488;6.668;2023-04-25T00:30:43;6.90;99.90
22071;DHT22;11200;51.488;6.668;2023-04-25T00:33:09;6.70;99.90
22071;DHT22;11200;51.488;6.668;2023-04-25T00:35:35;6.70;99.90
22071;DHT22;11200;51.488;6.668;2023-04-25T00:38:00;6.70;99.90
22071;DHT22;11200;51.488;6.668;2023-04-25T00:40:26;6.40;99.90
22071;DHT22;11200;51.488;6.668;2023-04-25T00:42:53;6.70;99.90
22071;DHT22;11200;51.488;6.668;2023-04-25T00:45:19;6.60;99.90
22071;DHT22;11200;51.488;6.668;2023-04-25T00:47:45;6.70;99.90
22071;DHT22;11200;51.488;6.668;2023-04-25T00:50:11;6.60;99.90
22071;DHT22;11200;51.488;6.668;2023-04-25T00:52:43;6.90;99.90
22071;DHT22;11200;51.488;6.668;2023-04-25T00:55:10;6.60;99.90
22071;DHT22;11200;51.488;6.668;2023-04-25T00:57:36;6.60;99.90
22071;DHT22;11200;51.488;6.668;2023-04-25T01:00:06;6.50;99.90
22071;DHT22;11200;51.488;6.668;2023-04-25T01:02:33;6.50;99.90
22071;DHT22;11200;51.488;6.668;2023-04-25T01:05:01;6.50;99.90
22071;DHT22;11200;51.488;6.668;2023-04-25T01:07:27;6.50;99.90
22071;DHT22;11200;51.488;6.668;2023-04-25T01:09:52;6.50;99.90
22071;DHT22;11200;51.488;6.668;2023-04-25T01:12:18;6.60;99.90
22071;DHT22;11200;51.488;6.668;2023-04-25T01:14:44;6.60;99.90
22071;DHT22;11200;51.488;6.668;2023-04-25T01:17:11;6.40;99.90
22071;DHT22;11200;51.488;6.668;2023-04-25T01:19:37;6.80;99.90
22071;DHT22;11200;51.488;6.668;2023-04-25T01:22:03;6.50;99.90
22071;DHT22;11200;51.488;6.668;2023-04-25T01:24:29;6.60;99.90
22071;DHT22;11200;51.488;6.668;2023-04-25T01:26:56;6.70;99.90
22071;DHT22;11200;51.488;6.668;2023-04-25T01:29:23;6.60;99.90
22071;DHT22;11200;51.488;6.668;2023-04-25T01:31:50;6.50;99.90
22071;DHT22;11200;51.488;6.668;2023-04-25T01:34:16;6.60;99.90
22071;DHT22;11200;51.488;6.668;2023-04-25T01:36:42;6.60;99.90
22071;DHT22;11200;51.488;6.668;2023-04-25T01:39:07;6.60;99.90
22071;DHT22;11200;51.488;6.668;2023-04-25T01:41:34;7.30;99.90
22071;DHT22;11200;51.488;6.668;2023-04-25T01:44:00;6.70;99.90
22071;DHT22;11200;51.488;6.668;2023-04-25T01:46:26;6.70;99.90
22071;DHT22;11200;51.488;6.668;2023-04-25T01:48:52;6.70;99.90
22071;DHT22;11200;51.488;6.668;2023-04-25T01:51:18;6.80;99.90
22071;DHT22;11200;51.488;6.668;2023-04-25T01:53:44;6.80;99.90
22071;DHT22;11200;51.488;6.668;2023-04-25T01:56:10;6.70;99.90
22071;DHT22;11200;51.488;6.668;2023-04-25T01:58:36;6.80;99.90
22071;DHT22;11200;51.488;6.668;2023-04-25T02:01:01;6.90;99.90
22071;DHT22;11200;51.488;6.668;2023-04-25T02:03:27;6.70;99.90
22071;DHT22;11200;51.488;6.668;2023-04-25T02:05:53;6.90;99.90
22071;DHT22;11200;51.488;6.668;2023-04-25T02:08:18;7.30;99.90
22071;DHT22;11200;51.488;6.668;2023-04-25T02:10:44;6.80;99.90
22071;DHT22;11200;51.488;6.668;2023-04-25T02:13:09;6.80;99.90
22071;DHT22;11200;51.488;6.668;2023-04-25T02:15:35;7.00;99.90
22071;DHT22;11200;51.488;6.668;2023-04-25T02:18:01;6.80;99.90
22071;DHT22;11200;51.488;6.668;2023-04-25T02:20:28;6.80;99.90
22071;DHT22;11200;51.488;6.668;2023-04-25T02:22:54;6.80;99.90
22071;DHT22;11200;51.488;6.668;2023-04-25T02:25:20;6.80;99.90
22071;DHT22;11200;51.488;6.668;2023-04-25T02:27:47;6.90;99.90
22071;DHT22;11200;51.488;6.668;2023-04-25T02:30:13;6.90;99.90
22071;DHT22;11200;51.488;6.668;2023-04-25T02:32:39;6.90;99.90
22071;DHT22;11200;51.488;6.668;2023-04-25T02:35:05;6.90;99.90
22071;DHT22;11200;51.488;6.668;2023-04-25T02:37:33;6.90;99.90
22071;DHT22;11200;51.488;6.668;2023-04-25T02:39:58;6.90;99.90
22071;DHT22;11200;51.488;6.668;2023-04-25T02:42:24;6.90;99.90
22071;DHT22;11200;51.488;6.668;2023-04-25T02:44:50;6.90;99.90
22071;DHT22;11200;51.488;6.668;2023-04-25T02:47:16;7.00;99.90
22071;DHT22;11200;51.488;6.668;2023-04-25T02:49:41;6.90;99.90
22071;DHT22;11200;51.488;6.668;2023-04-25T02:52:07;6.90;99.90
22071;DHT22;11200;51.488;6.668;2023-04-25T02:54:32;6.90;99.90
22071;DHT22;11200;51.488;6.668;2023-04-25T02:56:58;6.90;99.90
22071;DHT22;11200;51.488;6.668;2023-04-25T02:59:24;6.80;99.90
22071;DHT22;11200;51.488;6.668;2023-04-25T03:01:49;6.90;99.90
22071;DHT22;11200;51.488;6.668;2023-04-25T03:04:15;6.90;99.90
22071;DHT22;11200;51.488;6.668;2023-04-25T03:06:40;7.00;99.90
22071;DHT22;11200;51.488;6.668;2023-04-25T03:09:06;6.90;99.90
22071;DHT22;11200;51.488;6.668;2023-04-25T03:11:32;6.80;99.90
22071;DHT22;11200;51.488;6.668;2023-04-25T03:13:58;6.90;99.90
22071;DHT22;11200;51.488;6.668;2023-04-25T03:16:24;6.90;99.90
22071;DHT22;11200;51.488;6.668;2023-04-25T03:18:49;6.90;99.90
22071;DHT22;11200;51.488;6.668;2023-04-25T03:21:16;6.90;99.90
22071;DHT22;11200;51.488;6.668;2023-04-25T03:23:42;7.00;99.90
22071;DHT22;11200;51.488;6.668;2023-04-25T03:26:07;6.70;99.90
22071;DHT22;11200;51.488;6.668;2023-04-25T03:28:33;6.80;99.90
22071;DHT22;11200;51.488;6.668;2023-04-25T03:30:59;6.90;99.90
22071;DHT22;11200;51.488;6.668;2023-04-25T03:33:24;6.90;99.90
22071;DHT22;11200;51.488;6.668;2023-04-25T03:35:50;7.40;99.90
22071;DHT22;11200;51.488;6.668;2023-04-25T03:38:17;6.90;99.90
22071;DHT22;11200;51.488;6.668;2023-04-25T03:40:42;7.00;99.90
22071;DHT22;11200;51.488;6.668;2023-04-25T03:43:08;7.00;99.90
22071;DHT22;11200;51.488;6.668;2023-04-25T03:45:33;6.80;99.90
22071;DHT22;11200;51.488;6.668;2023-04-25T03:47:59;6.80;99.90
22071;DHT22;11200;51.488;6.668;2023-04-25T03:50:25;6.80;99.90
22071;DHT22;11200;51.488;6.668;2023-04-25T03:52:50;6.90;99.90
22071;DHT22;11200;51.488;6.668;2023-04-25T03:55:16;7.00;99.90
22071;DHT22;11200;51.488;6.668;2023-04-25T03:57:41;6.80;99.90
22071;DHT22;11200;51.488;6.668;2023-04-25T04:00:07;7.00;99.90
22071;DHT22;11200;51.488;6.668;2023-04-25T04:02:42;6.90;99.90
22071;DHT22;11200;51.488;6.668;2023-04-25T04:05:19;6.80;99.90
22071;DHT22;11200;51.488;6.668;2023-04-25T04:07:48;6.80;99.90
22071;DHT22;11200;51.488;6.668;2023-04-25T04:10:22;6.90;99.90
22071;DHT22;11200;51.488;6.668;2023-04-25T04:12:48;6.80;99.90
22071;DHT22;11200;51.488;6.668;2023-04-25T04:15:13;6.80;99.90
22071;DHT22;11200;51.488;6.668;2023-04-25T04:17:39;6.80;99.90
22071;DHT22;11200;51.488;6.668;2023-04-25T04:20:06;6.80;99.90
22071;DHT22;11200;51.488;6.668;2023-04-25T04:22:33;6.80;99.90
22071;DHT22;11200;51.488;6.668;2023-04-25T04:24:59;6.80;99.90
22071;DHT22;11200;51.488;6.668;2023-04-25T04:27:24;7.20;99.90
22071;DHT22;11200;51.488;6.668;2023-04-25T04:29:50;6.60;99.90
22071;DHT22;11200;51.488;6.668;2023-04-25T04:32:17;6.60;99.90
22071;DHT22;11200;51.488;6.668;2023-04-25T04:34:43;6.70;99.90
22071;DHT22;11200;51.488;6.668;2023-04-25T04:37:08;6.80;99.90
22071;DHT22;11200;51.488;6.668;2023-04-25T04:39:35;6.70;99.90
22071;DHT22;11200;51.488;6.668;2023-04-25T04:42:01;6.70;99.90
22071;DHT22;11200;51.488;6.668;2023-04-25T04:44:30;6.60;99.90
22071;DHT22;11200;51.488;6.668;2023-04-25T04:46:58;6.60;99.90
22071;DHT22;11200;51.488;6.668;2023-04-25T04:49:24;6.50;99.90
22071;DHT22;11200;51.488;6.668;2023-04-25T04:51:49;6.60;99.90
22071;DHT22;11200;51.488;6.668;2023-04-25T04:54:15;6.60;99.90
22071;DHT22;11200;51.488;6.668;2023-04-25T04:56:41;6.50;99.90
22071;DHT22;11200;51.488;6.668;2023-04-25T04:59:07;6.60;99.90
22071;DHT22;11200;51.488;6.668;2023-04-25T05:01:32;6.40;99.90
22071;DHT22;11200;51.488;6.668;2023-04-25T05:04:00;6.40;99.90
22071;DHT22;11200;51.488;6.668;2023-04-25T05:06:27;6.90;99.90
22071;DHT22;11200;51.488;6.668;2023-04-25T05:08:54;6.30;99.90
22071;DHT22;11200;51.488;6.668;2023-04-25T05:11:20;6.60;99.90
22071;DHT22;11200;51.488;6.668;2023-04-25T05:13:46;6.40;99.90
22071;DHT22;11200;51.488;6.668;2023-04-25T05:16:12;6.30;99.90
22071;DHT22;11200;51.488;6.668;2023-04-25T05:18:39;6.20;99.90
22071;DHT22;11200;51.488;6.668;2023-04-25T05:21:05;6.90;99.90
22071;DHT22;11200;51.488;6.668;2023-04-25T05:23:32;6.30;99.90
22071;DHT22;11200;51.488;6.668;2023-04-25T05:25:58;6.50;99.90
22071;DHT22;11200;51.488;6.668;2023-04-25T05:28:24;6.40;99.90
22071;DHT22;11200;51.488;6.668;2023-04-25T05:30:49;6.20;99.90
22071;DHT22;11200;51.488;6.668;2023-04-25T05:33:16;6.80;99.90
22071;DHT22;11200;51.488;6.668;2023-04-25T05:35:42;6.30;99.90
22071;DHT22;11200;51.488;6.668;2023-04-25T05:38:07;6.70;99.90
22071;DHT22;11200;51.488;6.668;2023-04-25T05:40:33;6.30;99.90
22071;DHT22;11200;51.488;6.668;2023-04-25T05:42:59;6.20;99.90
22071;DHT22;11200;51.488;6.668;2023-04-25T05:45:24;6.30;99.90
22071;DHT22;11200;51.488;6.668;2023-04-25T05:47:50;6.30;99.90
22071;DHT22;11200;51.488;6.668;2023-04-25T05:50:15;6.30;99.90
22071;DHT22;11200;51.488;6.668;2023-04-25T05:52:41;6.40;99.90
22071;DHT22;11200;51.488;6.668;2023-04-25T05:55:10;6.40;99.90
22071;DHT22;11200;51.488;6.668;2023-04-25T05:57:35;6.30;99.90
22071;DHT22;11200;51.488;6.668;2023-04-25T06:00:01;6.40;99.90
22071;DHT22;11200;51.488;6.668;2023-04-25T06:02:27;6.40;99.90
22071;DHT22;11200;51.488;6.668;2023-04-25T06:04:52;6.60;99.90
22071;DHT22;11200;51.488;6.668;2023-04-25T06:07:19;6.50;99.90
22071;DHT22;11200;51.488;6.668;2023-04-25T06:09:47;6.50;99.90
22071;DHT22;11200;51.488;6.668;2023-04-25T06:12:13;6.90;99.90
22071;DHT22;11200;51.488;6.668;2023-04-25T06:14:38;6.70;99.90
22071;DHT22;11200;51.488;6.668;2023-04-25T06:17:04;7.20;99.90
22071;DHT22;11200;51.488;6.668;2023-04-25T06:19:34;6.70;99.90
22071;DHT22;11200;51.488;6.668;2023-04-25T06:22:00;6.60;99.90
22071;DHT22;11200;51.488;6.668;2023-04-25T06:24:26;6.60;99.90
22071;DHT22;11200;51.488;6.668;2023-04-25T06:26:52;6.70;99.90
22071;DHT22;11200;51.488;6.668;2023-04-25T06:29:18;6.70;99.90
22071;DHT22;11200;51.488;6.668;2023-04-25T06:31:45;7.00;99.90
22071;DHT22;11200;51.488;6.668;2023-04-25T06:34:13;6.70;99.90
22071;DHT22;11200;51.488;6.668;2023-04-25T06:36:39;7.10;99.90
22071;DHT22;11200;51.488;6.668;2023-04-25T06:39:04;6.80;99.90
22071;DHT22;11200;51.488;6.668;2023-04-25T06:41:30;6.80;99.90
22071;DHT22;11200;51.488;6.668;2023-04-25T06:43:55;6.90;99.90
22071;DHT22;11200;51.488;6.668;2023-04-25T06:46:21;7.10;99.90
22071;DHT22;11200;51.488;6.668;2023-04-25T06:48:47;6.90;99.90
22071;DHT22;11200;51.488;6.668;2023-04-25T06:51:12;7.00;99.90
22071;DHT22;11200;51.488;6.668;2023-04-25T06:53:39;7.30;99.90
22071;DHT22;11200;51.488;6.668;2023-04-25T06:56:05;7.00;99.90
22071;DHT22;11200;51.488;6.668;2023-04-25T06:58:31;7.00;99.90
22071;DHT22;11200;51.488;6.668;2023-04-25T07:00:57;7.40;99.90
22071;DHT22;11200;51.488;6.668;2023-04-25T07:03:22;7.00;99.90
22071;DHT22;11200;51.488;6.668;2023-04-25T07:05:49;7.50;99.90
22071;DHT22;11200;51.488;6.668;2023-04-25T07:08:16;7.20;99.90
22071;DHT22;11200;51.488;6.668;2023-04-25T07:10:42;7.10;99.90
22071;DHT22;11200;51.488;6.668;2023-04-25T07:13:08;7.10;99.90
22071;DHT22;11200;51.488;6.668;2023-04-25T07:15:33;7.20;99.90
22071;DHT22;11200;51.488;6.668;2023-04-25T07:17:59;7.20;99.90
22071;DHT22;11200;51.488;6.668;2023-04-25T07:20:25;7.40;99.90
22071;DHT22;11200;51.488;6.668;2023-04-25T07:22:50;7.30;99.90
22071;DHT22;11200;51.488;6.668;2023-04-25T07:25:17;7.40;99.90
22071;DHT22;11200;51.488;6.668;2023-04-25T07:27:42;7.50;99.90
22071;DHT22;11200;51.488;6.668;2023-04-25T07:30:08;8.00;99.90
22071;DHT22;11200;51.488;6.668;2023-04-25T07:32:34;7.60;99.90
22071;DHT22;11200;51.488;6.668;2023-04-25T07:35:00;7.60;99.90
22071;DHT22;11200;51.488;6.668;2023-04-25T07:37:27;7.70;99.90
22071;DHT22;11200;51.488;6.668;2023-04-25T07:39:52;7.70;99.90
22071;DHT22;11200;51.488;6.668;2023-04-25T07:42:18;8.20;99.90
22071;DHT22;11200;51.488;6.668;2023-04-25T07:44:43;8.40;99.90
22071;DHT22;11200;51.488;6.668;2023-04-25T07:47:09;8.00;99.90
22071;DHT22;11200;51.488;6.668;2023-04-25T07:49:36;8.00;99.90
22071;DHT22;11200;51.488;6.668;2023-04-25T07:52:03;8.20;99.90
22071;DHT22;11200;51.488;6.668;2023-04-25T07:54:30;8.20;99.90
22071;DHT22;11200;51.488;6.668;2023-04-25T07:56:56;8.30;99.90
22071;DHT22;11200;51.488;6.668;2023-04-25T07:59:22;8.40;99.90
22071;DHT22;11200;51.488;6.668;2023-04-25T08:01:48;8.50;99.90
22071;DHT22;11200;51.488;6.668;2023-04-25T08:04:13;8.70;99.90
22071;DHT22;11200;51.488;6.668;2023-04-25T08:06:39;8.90;99.90
22071;DHT22;11200;51.488;6.668;2023-04-25T08:09:06;8.80;99.90
22071;DHT22;11200;51.488;6.668;2023-04-25T08:11:31;8.90;99.90
22071;DHT22;11200;51.488;6.668;2023-04-25T08:13:57;9.10;99.90
22071;DHT22;11200;51.488;6.668;2023-04-25T08:16:22;9.20;99.90
22071;DHT22;11200;51.488;6.668;2023-04-25T08:18:49;9.20;99.90
22071;DHT22;11200;51.488;6.668;2023-04-25T08:21:15;9.50;99.90
22071;DHT22;11200;51.488;6.668;2023-04-25T08:23:41;9.50;99.90
22071;DHT22;11200;51.488;6.668;2023-04-25T08:26:06;9.70;99.90
22071;DHT22;11200;51.488;6.668;2023-04-25T08:28:32;9.80;99.90
22071;DHT22;11200;51.488;6.668;2023-04-25T08:30:58;9.90;99.90
22071;DHT22;11200;51.488;6.668;2023-04-25T08:33:23;10.00;99.90
22071;DHT22;11200;51.488;6.668;2023-04-25T08:35:49;10.10;99.90
22071;DHT22;11200;51.488;6.668;2023-04-25T08:38:15;10.10;99.90
22071;DHT22;11200;51.488;6.668;2023-04-25T08:40:41;10.20;99.90
22071;DHT22;11200;51.488;6.668;2023-04-25T08:43:13;10.30;99.90
22071;DHT22;11200;51.488;6.668;2023-04-25T08:45:41;10.30;99.90
22071;DHT22;11200;51.488;6.668;2023-04-25T08:48:14;10.40;99.90
22071;DHT22;11200;51.488;6.668;2023-04-25T08:50:50;10.50;99.90
22071;DHT22;11200;51.488;6.668;2023-04-25T08:53:17;10.60;99.90
22071;DHT22;11200;51.488;6.668;2023-04-25T08:55:47;10.70;99.90
22071;DHT22;11200;51.488;6.668;2023-04-25T08:58:13;10.80;99.90
22071;DHT22;11200;51.488;6.668;2023-04-25T09:00:40;10.90;99.90
22071;DHT22;11200;51.488;6.668;2023-04-25T09:03:05;11.10;99.90
22071;DHT22;11200;51.488;6.668;2023-04-25T09:05:33;11.30;99.90
22071;DHT22;11200;51.488;6.668;2023-04-25T09:07:58;11.40;99.90
22071;DHT22;11200;51.488;6.668;2023-04-25T09:10:26;11.50;99.90
22071;DHT22;11200;51.488;6.668;2023-04-25T09:13:09;11.70;99.90
22071;DHT22;11200;51.488;6.668;2023-04-25T09:15:50;11.80;99.90
22071;DHT22;11200;51.488;6.668;2023-04-25T09:20:49;12.10;99.90
22071;DHT22;11200;51.488;6.668;2023-04-25T09:23:15;12.20;99.90
22071;DHT22;11200;51.488;6.668;2023-04-25T09:25:41;12.30;99.90
22071;DHT22;11200;51.488;6.668;2023-04-25T09:28:09;12.40;99.90
22071;DHT22;11200;51.488;6.668;2023-04-25T09:30:36;12.50;99.90
22071;DHT22;11200;51.488;6.668;2023-04-25T09:33:09;12.50;99.90
22071;DHT22;11200;51.488;6.668;2023-04-25T09:35:41;12.60;99.90
22071;DHT22;11200;51.488;6.668;2023-04-25T09:38:13;12.60;99.90
22071;DHT22;11200;51.488;6.668;2023-04-25T09:40:47;12.60;99.90
22071;DHT22;11200;51.488;6.668;2023-04-25T09:43:24;12.70;99.90
22071;DHT22;11200;51.488;6.668;2023-04-25T09:45:53;12.70;99.90
22071;DHT22;11200;51.488;6.668;2023-04-25T09:48:20;12.80;99.90
22071;DHT22;11200;51.488;6.668;2023-04-25T09:51:11;12.80;99.90
22071;DHT22;11200;51.488;6.668;2023-04-25T09:53:41;12.90;99.90
22071;DHT22;11200;51.488;6.668;2023-04-25T09:56:10;13.10;99.90
22071;DHT22;11200;51.488;6.668;2023-04-25T09:58:38;13.20;99.90
22071;DHT22;11200;51.488;6.668;2023-04-25T10:01:07;13.30;99.90
22071;DHT22;11200;51.488;6.668;2023-04-25T10:03:35;13.30;99.90
22071;DHT22;11200;51.488;6.668;2023-04-25T10:06:03;13.50;99.90
22071;DHT22;11200;51.488;6.668;2023-04-25T10:08:41;13.60;99.90
22071;DHT22;11200;51.488;6.668;2023-04-25T10:11:08;13.40;99.90
22071;DHT22;11200;51.488;6.668;2023-04-25T10:13:35;13.70;99.90
22071;DHT22;11200;51.488;6.668;2023-04-25T10:16:02;13.90;99.90
22071;DHT22;11200;51.488;6.668;2023-04-25T10:18:29;14.00;99.90
22071;DHT22;11200;51.488;6.668;2023-04-25T10:20:57;14.10;99.90
22071;DHT22;11200;51.488;6.668;2023-04-25T10:23:23;14.20;99.90
22071;DHT22;11200;51.488;6.668;2023-04-25T10:25:53;14.30;99.90
22071;DHT22;11200;51.488;6.668;2023-04-25T10:28:20;14.40;99.90
22071;DHT22;11200;51.488;6.668;2023-04-25T10:31:03;14.40;99.90
22071;DHT22;11200;51.488;6.668;2023-04-25T10:33:39;14.40;99.90
22071;DHT22;11200;51.488;6.668;2023-04-25T10:36:21;14.40;99.90
22071;DHT22;11200;51.488;6.668;2023-04-25T10:39:05;14.40;99.90
22071;DHT22;11200;51.488;6.668;2023-04-25T10:41:46;14.40;99.90
22071;DHT22;11200;51.488;6.668;2023-04-25T10:44:21;14.40;99.90
22071;DHT22;11200;51.488;6.668;2023-04-25T10:46:47;14.40;99.90
22071;DHT22;11200;51.488;6.668;2023-04-25T10:49:35;14.50;99.90
22071;DHT22;11200;51.488;6.668;2023-04-25T10:54:47;14.40;99.90
22071;DHT22;11200;51.488;6.668;2023-04-25T11:02:47;14.30;99.90
22071;DHT22;11200;51.488;6.668;2023-04-25T11:05:36;14.20;99.90
22071;DHT22;11200;51.488;6.668;2023-04-25T11:08:03;14.20;99.90
22071;DHT22;11200;51.488;6.668;2023-04-25T11:10:33;14.10;99.90
22071;DHT22;11200;51.488;6.668;2023-04-25T11:13:01;14.00;99.90
22071;DHT22;11200;51.488;6.668;2023-04-25T11:15:27;13.90;99.90
22071;DHT22;11200;51.488;6.668;2023-04-25T11:17:53;13.90;99.90
22071;DHT22;11200;51.488;6.668;2023-04-25T11:20:19;13.80;99.90
22071;DHT22;11200;51.488;6.668;2023-04-25T11:22:46;13.70;99.90
22071;DHT22;11200;51.488;6.668;2023-04-25T11:25:13;13.70;99.90
22071;DHT22;11200;51.488;6.668;2023-04-25T11:27:52;13.60;99.90
22071;DHT22;11200;51.488;6.668;2023-04-25T11:30:19;13.60;99.90
22071;DHT22;11200;51.488;6.668;2023-04-25T11:32:45;13.50;99.90
22071;DHT22;11200;51.488;6.668;2023-04-25T11:35:11;13.40;99.90
22071;DHT22;11200;51.488;6.668;2023-04-25T11:37:39;13.40;99.90
22071;DHT22;11200;51.488;6.668;2023-04-25T11:40:07;13.20;99.90
22071;DHT22;11200;51.488;6.668;2023-04-25T11:42:34;13.20;99.90
22071;DHT22;11200;51.488;6.668;2023-04-25T11:45:01;13.10;99.90
22071;DHT22;11200;51.488;6.668;2023-04-25T11:47:30;13.10;99.90
22071;DHT22;11200;51.488;6.668;2023-04-25T11:50:00;13.00;99.90
22071;DHT22;11200;51.488;6.668;2023-04-25T11:52:36;12.90;99.90
22071;DHT22;11200;51.488;6.668;2023-04-25T11:55:05;12.80;99.90
22071;DHT22;11200;51.488;6.668;2023-04-25T11:57:32;12.80;99.90
22071;DHT22;11200;51.488;6.668;2023-04-25T12:00:09;12.70;99.90
22071;DHT22;11200;51.488;6.668;2023-04-25T12:02:36;12.70;99.90
22071;DHT22;11200;51.488;6.668;2023-04-25T12:05:05;12.60;99.90
22071;DHT22;11200;51.488;6.668;2023-04-25T12:07:31;12.60;99.90
22071;DHT22;11200;51.488;6.668;2023-04-25T12:09:57;12.60;99.90
22071;DHT22;11200;51.488;6.668;2023-04-25T12:12:27;12.70;99.90
22071;DHT22;11200;51.488;6.668;2023-04-25T12:15:08;12.80;99.90
22071;DHT22;11200;51.488;6.668;2023-04-25T12:17:38;12.90;99.90
22071;DHT22;11200;51.488;6.668;2023-04-25T12:20:13;13.00;99.90
22071;DHT22;11200;51.488;6.668;2023-04-25T12:22:44;13.20;99.90
22071;DHT22;11200;51.488;6.668;2023-04-25T12:25:44;13.30;99.90
22071;DHT22;11200;51.488;6.668;2023-04-25T12:28:17;13.50;99.90
22071;DHT22;11200;51.488;6.668;2023-04-25T12:31:00;13.70;99.90
22071;DHT22;11200;51.488;6.668;2023-04-25T12:33:31;13.90;99.90
22071;DHT22;11200;51.488;6.668;2023-04-25T12:35:58;14.10;99.90
22071;DHT22;11200;51.488;6.668;2023-04-25T12:38:31;14.30;99.90
22071;DHT22;11200;51.488;6.668;2023-04-25T12:40:57;14.40;99.90
22071;DHT22;11200;51.488;6.668;2023-04-25T12:43:23;14.50;99.90
22071;DHT22;11200;51.488;6.668;2023-04-25T12:45:50;14.60;99.90
22071;DHT22;11200;51.488;6.668;2023-04-25T12:48:16;14.60;99.90
22071;DHT22;11200;51.488;6.668;2023-04-25T12:50:42;14.50;99.90
22071;DHT22;11200;51.488;6.668;2023-04-25T12:53:08;14.50;99.90
22071;DHT22;11200;51.488;6.668;2023-04-25T12:55:34;14.40;99.90
22071;DHT22;11200;51.488;6.668;2023-04-25T12:58:00;14.40;99.90
22071;DHT22;11200;51.488;6.668;2023-04-25T13:00:25;14.40;99.90
22071;DHT22;11200;51.488;6.668;2023-04-25T13:02:52;14.30;99.90
22071;DHT22;11200;51.488;6.668;2023-04-25T13:05:18;14.30;99.90
22071;DHT22;11200;51.488;6.668;2023-04-25T13:07:44;14.30;99.90
22071;DHT22;11200;51.488;6.668;2023-04-25T13:10:11;14.30;99.90
22071;DHT22;11200;51.488;6.668;2023-04-25T13:12:37;14.30;99.90
22071;DHT22;11200;51.488;6.668;2023-04-25T13:15:02;14.20;99.90
22071;DHT22;11200;51.488;6.668;2023-04-25T13:17:28;14.30;99.90
22071;DHT22;11200;51.488;6.668;2023-04-25T13:19:54;14.30;99.90
22071;DHT22;11200;51.488;6.668;2023-04-25T13:22:19;14.40;99.90
22071;DHT22;11200;51.488;6.668;2023-04-25T13:24:46;14.40;99.90
22071;DHT22;11200;51.488;6.668;2023-04-25T13:27:12;14.40;99.90
22071;DHT22;11200;51.488;6.668;2023-04-25T13:29:38;14.50;99.90
22071;DHT22;11200;51.488;6.668;2023-04-25T13:32:06;14.60;99.90
22071;DHT22;11200;51.488;6.668;2023-04-25T13:34:31;14.70;99.90
22071;DHT22;11200;51.488;6.668;2023-04-25T13:36:57;14.80;99.90
22071;DHT22;11200;51.488;6.668;2023-04-25T13:39:22;14.80;99.90
22071;DHT22;11200;51.488;6.668;2023-04-25T13:41:50;14.80;99.90
22071;DHT22;11200;51.488;6.668;2023-04-25T13:44:16;14.90;99.90
22071;DHT22;11200;51.488;6.668;2023-04-25T13:46:42;14.90;99.90
22071;DHT22;11200;51.488;6.668;2023-04-25T13:49:07;14.90;99.90
22071;DHT22;11200;51.488;6.668;2023-04-25T13:51:36;14.90;99.90
22071;DHT22;11200;51.488;6.668;2023-04-25T13:54:01;14.90;99.90
22071;DHT22;11200;51.488;6.668;2023-04-25T13:56:27;14.90;99.90
22071;DHT22;11200;51.488;6.668;2023-04-25T13:58:53;14.80;99.90
22071;DHT22;11200;51.488;6.668;2023-04-25T14:01:21;14.80;99.90
22071;DHT22;11200;51.488;6.668;2023-04-25T14:03:47;14.80;99.90
22071;DHT22;11200;51.488;6.668;2023-04-25T14:06:12;14.80;99.90
22071;DHT22;11200;51.488;6.668;2023-04-25T14:08:39;14.70;99.90
22071;DHT22;11200;51.488;6.668;2023-04-25T14:11:06;14.70;99.90
22071;DHT22;11200;51.488;6.668;2023-04-25T14:13:31;14.60;99.90
22071;DHT22;11200;51.488;6.668;2023-04-25T14:15:57;14.60;99.90
22071;DHT22;11200;51.488;6.668;2023-04-25T14:18:22;14.50;99.90
22071;DHT22;11200;51.488;6.668;2023-04-25T14:20:48;14.50;99.90
22071;DHT22;11200;51.488;6.668;2023-04-25T14:23:14;14.40;99.90
22071;DHT22;11200;51.488;6.668;2023-04-25T14:25:39;14.40;99.90
22071;DHT22;11200;51.488;6.668;2023-04-25T14:28:07;14.30;99.90
22071;DHT22;11200;51.488;6.668;2023-04-25T14:30:33;14.20;99.90
22071;DHT22;11200;51.488;6.668;2023-04-25T14:32:59;14.20;99.90
22071;DHT22;11200;51.488;6.668;2023-04-25T14:35:25;14.10;99.90
22071;DHT22;11200;51.488;6.668;2023-04-25T14:37:50;14.10;99.90
22071;DHT22;11200;51.488;6.668;2023-04-25T14:40:16;14.00;99.90
22071;DHT22;11200;51.488;6.668;2023-04-25T14:42:43;13.90;99.90
22071;DHT22;11200;51.488;6.668;2023-04-25T14:45:09;13.90;99.90
22071;DHT22;11200;51.488;6.668;2023-04-25T14:47:38;13.80;99.90
22071;DHT22;11200;51.488;6.668;2023-04-25T14:50:05;13.80;99.90
22071;DHT22;11200;51.488;6.668;2023-04-25T14:52:31;13.80;99.90
22071;DHT22;11200;51.488;6.668;2023-04-25T14:54:57;13.80;99.90
22071;DHT22;11200;51.488;6.668;2023-04-25T14:57:23;13.70;99.90
22071;DHT22;11200;51.488;6.668;2023-04-25T14:59:48;13.70;99.90
22071;DHT22;11200;51.488;6.668;2023-04-25T15:02:14;13.70;99.90
22071;DHT22;11200;51.488;6.668;2023-04-25T15:04:42;13.70;99.90
22071;DHT22;11200;51.488;6.668;2023-04-25T15:07:08;13.70;99.90
22071;DHT22;11200;51.488;6.668;2023-04-25T15:09:34;13.70;99.90
22071;DHT22;11200;51.488;6.668;2023-04-25T15:11:59;13.60;99.90
22071;DHT22;11200;51.488;6.668;2023-04-25T15:14:25;13.60;99.90
22071;DHT22;11200;51.488;6.668;2023-04-25T15:16:51;13.50;99.90
22071;DHT22;11200;51.488;6.668;2023-04-25T15:19:17;13.50;99.90
22071;DHT22;11200;51.488;6.668;2023-04-25T15:21:42;13.40;99.90
22071;DHT22;11200;51.488;6.668;2023-04-25T15:24:08;13.40;99.90
22071;DHT22;11200;51.488;6.668;2023-04-25T15:26:33;13.40;99.90
22071;DHT22;11200;51.488;6.668;2023-04-25T15:28:59;13.30;99.90
22071;DHT22;11200;51.488;6.668;2023-04-25T15:31:25;13.30;99.90
22071;DHT22;11200;51.488;6.668;2023-04-25T15:33:50;13.20;99.90
22071;DHT22;11200;51.488;6.668;2023-04-25T15:36:16;13.20;99.90
22071;DHT22;11200;51.488;6.668;2023-04-25T15:38:43;13.20;99.90
22071;DHT22;11200;51.488;6.668;2023-04-25T15:41:09;13.20;99.90
22071;DHT22;11200;51.488;6.668;2023-04-25T15:43:35;13.20;99.90
22071;DHT22;11200;51.488;6.668;2023-04-25T15:46:04;13.10;99.90
22071;DHT22;11200;51.488;6.668;2023-04-25T15:48:31;13.10;99.90
22071;DHT22;11200;51.488;6.668;2023-04-25T15:50:57;13.00;99.90